Time;durP1;ratioP1;P1;durP2;ratioP2;P2;SDS_P1;SDS_P2;PMS_P1;PMS_P2;Temp;Humidity;BMP_temperature;BMP_pressure;BME280_temperature;BME280_humidity;BME280_pressure;Samples;Min_cycle;Max_cycle;Signal;HPM_P1;HPM_P2
2022/07/03 00:01:03;;;;;;;17.33;7.33;;;19.80;59.40;;;;;;5017507;28;20294;-60
2022/07/03 00:03:29;;;;;;;17.70;7.37;;;19.80;59.00;;;;;;5024341;28;20241;-60
2022/07/03 00:05:55;;;;;;;16.67;7.17;;;19.70;59.30;;;;;;5008463;28;20204;-61
2022/07/03 00:08:20;;;;;;;20.23;7.87;;;19.70;59.40;;;;;;5024394;28;20658;-60
2022/07/03 00:10:46;;;;;;;17.23;7.43;;;19.60;59.70;;;;;;5013952;28;20211;-62
2022/07/03 00:13:11;;;;;;;16.40;6.80;;;19.60;59.70;;;;;;5025060;28;20290;-62
2022/07/03 00:15:38;;;;;;;15.30;7.30;;;19.60;60.00;;;;;;5012580;28;20316;-61
2022/07/03 00:18:04;;;;;;;13.97;6.73;;;19.50;60.40;;;;;;5024968;28;20570;-60
2022/07/03 00:20:37;;;;;;;16.97;7.50;;;19.50;60.50;;;;;;5011775;28;20290;-60
2022/07/03 00:23:08;;;;;;;20.10;7.63;;;19.50;60.50;;;;;;5013965;28;20631;-61
2022/07/03 00:25:33;;;;;;;17.90;8.40;;;19.50;60.90;;;;;;5002934;28;20302;-61
2022/07/03 00:27:59;;;;;;;17.23;7.07;;;19.40;61.30;;;;;;5025333;28;20623;-61
2022/07/03 00:30:25;;;;;;;19.83;8.97;;;19.40;62.00;;;;;;5014388;28;20215;-62
2022/07/03 00:32:51;;;;;;;18.87;8.20;;;19.40;61.90;;;;;;5024116;28;20199;-62
2022/07/03 00:35:17;;;;;;;16.00;7.43;;;19.30;62.50;;;;;;5019214;28;20357;-60
2022/07/03 00:37:43;;;;;;;15.60;6.57;;;19.20;62.70;;;;;;5025824;28;20319;-60
2022/07/03 00:40:09;;;;;;;17.17;7.27;;;19.20;63.00;;;;;;5026167;28;20211;-60
2022/07/03 00:42:39;;;;;;;20.80;9.07;;;19.20;63.10;;;;;;5028252;28;20195;-62
2022/07/03 00:45:07;;;;;;;19.10;7.70;;;19.10;63.30;;;;;;5024464;28;20207;-61
2022/07/03 00:47:36;;;;;;;17.10;7.97;;;19.10;63.60;;;;;;5028060;28;20289;-62
2022/07/03 00:50:07;;;;;;;15.07;7.03;;;19.10;63.80;;;;;;5025986;28;20219;-62
2022/07/03 00:52:33;;;;;;;15.77;7.27;;;19.00;64.40;;;;;;5023152;28;20707;-60
2022/07/03 00:55:00;;;;;;;17.33;7.30;;;19.00;65.00;;;;;;5017791;28;20701;-62
2022/07/03 00:57:28;;;;;;;21.47;8.70;;;18.90;65.50;;;;;;5008351;28;20639;-61
2022/07/03 00:59:54;;;;;;;17.07;7.77;;;18.90;65.30;;;;;;5024384;28;20310;-61
2022/07/03 01:02:40;;;;;;;16.13;8.00;;;18.90;65.70;;;;;;5018926;28;20193;-61
2022/07/03 01:05:31;;;;;;;13.90;6.33;;;18.90;66.10;;;;;;5015440;28;20254;-61
2022/07/03 01:08:13;;;;;;;12.13;6.70;;;18.80;66.50;;;;;;5012218;28;20244;-62
2022/07/03 01:11:10;;;;;;;13.10;6.33;;;18.80;66.70;;;;;;5021604;28;20264;-61
2022/07/03 01:13:51;;;;;;;17.43;7.50;;;18.80;67.60;;;;;;5010743;28;20752;-61
2022/07/03 01:16:24;;;;;;;17.20;7.07;;;18.80;67.90;;;;;;5008027;28;20203;-61
2022/07/03 01:18:54;;;;;;;21.50;9.53;;;18.70;68.20;;;;;;5019890;28;20291;-60
2022/07/03 01:21:40;;;;;;;19.57;9.00;;;18.70;68.40;;;;;;5007400;28;20211;-61
2022/07/03 01:24:19;;;;;;;19.80;8.57;;;18.60;68.60;;;;;;5007267;28;20195;-61
2022/07/03 01:26:47;;;;;;;16.07;7.43;;;18.60;69.10;;;;;;5019540;28;20249;-61
2022/07/03 01:29:22;;;;;;;50.63;20.47;;;18.60;70.00;;;;;;5024393;28;20196;-61
2022/07/03 01:31:51;;;;;;;19.73;9.03;;;18.60;70.00;;;;;;5020133;28;20198;-61
2022/07/03 01:34:18;;;;;;;54.07;21.47;;;18.50;70.10;;;;;;5024881;28;20625;-61
2022/07/03 01:36:47;;;;;;;17.43;8.10;;;18.50;70.90;;;;;;5020161;28;20187;-61
2022/07/03 01:39:16;;;;;;;51.43;20.03;;;18.50;71.30;;;;;;5025106;28;21003;-61
2022/07/03 01:41:45;;;;;;;17.57;7.97;;;18.40;71.70;;;;;;5016425;28;20233;-61
2022/07/03 01:44:13;;;;;;;49.90;22.97;;;18.50;71.60;;;;;;5022022;28;20306;-61
2022/07/03 01:46:45;;;;;;;13.57;6.80;;;18.40;72.00;;;;;;5026968;28;20191;-60
2022/07/03 01:49:13;;;;;;;56.00;22.03;;;18.40;72.00;;;;;;5021882;28;20243;-62
2022/07/03 01:51:39;;;;;;;16.83;7.30;;;18.50;72.20;;;;;;5019878;28;20756;-62
2022/07/03 01:54:05;;;;;;;16.93;8.60;;;18.40;72.70;;;;;;5023159;28;20215;-61
2022/07/03 01:56:33;;;;;;;14.47;7.13;;;18.40;73.20;;;;;;5017743;28;20235;-61
2022/07/03 01:59:03;;;;;;;15.90;8.17;;;18.40;73.90;;;;;;5026725;28;20306;-61
2022/07/03 02:01:40;;;;;;;15.10;7.23;;;18.30;74.10;;;;;;5006832;28;20965;-59
2022/07/03 02:04:19;;;;;;;23.30;10.43;;;18.30;74.70;;;;;;5016584;28;20211;-60
2022/07/03 02:07:02;;;;;;;14.83;7.63;;;18.30;75.30;;;;;;5011598;28;20246;-61
2022/07/03 02:09:41;;;;;;;14.17;7.03;;;18.20;75.90;;;;;;5010255;28;20237;-61
2022/07/03 02:12:12;;;;;;;13.63;6.80;;;18.20;76.60;;;;;;5013449;28;20642;-61
2022/07/03 02:14:42;;;;;;;17.80;7.93;;;18.10;77.40;;;;;;5018069;28;20231;-61
2022/07/03 02:17:16;;;;;;;14.80;7.20;;;18.10;78.00;;;;;;5017426;28;20647;-61
2022/07/03 02:19:57;;;;;;;12.33;6.10;;;18.10;78.70;;;;;;5010455;28;20237;-58
2022/07/03 02:22:32;;;;;;;10.23;6.10;;;18.10;79.10;;;;;;5019128;28;20217;-61
2022/07/03 02:25:04;;;;;;;16.43;7.87;;;18.00;80.40;;;;;;5019041;28;20210;-62
2022/07/03 02:27:38;;;;;;;10.23;5.53;;;18.00;80.90;;;;;;5026150;28;20243;-63
2022/07/03 02:30:06;;;;;;;13.93;7.27;;;17.90;81.10;;;;;;5013503;28;20279;-62
2022/07/03 02:33:06;;;;;;;14.10;6.93;;;17.90;81.80;;;;;;5021317;28;20322;-62
2022/07/03 02:35:33;;;;;;;8.10;5.73;;;17.90;83.00;;;;;;5013970;28;20239;-62
2022/07/03 02:38:04;;;;;;;18.93;8.60;;;17.90;83.30;;;;;;5020855;28;20218;-61
2022/07/03 02:41:02;;;;;;;11.83;6.93;;;17.90;83.60;;;;;;5026036;28;20280;-61
2022/07/03 02:43:41;;;;;;;10.10;6.10;;;17.90;83.80;;;;;;5015361;28;20677;-61
2022/07/03 02:49:20;;;;;;;12.50;6.87;;;17.90;84.40;;;;;;4987179;28;20215;-61
2022/07/03 02:51:58;;;;;;;16.93;8.87;;;17.90;85.20;;;;;;4999885;28;20202;-62
2022/07/03 02:54:24;;;;;;;12.93;6.70;;;17.90;86.40;;;;;;5013944;28;20589;-61
2022/07/03 02:57:06;;;;;;;30.07;15.03;;;17.80;86.80;;;;;;5022527;28;20220;-61
2022/07/03 02:59:53;;;;;;;8.97;5.80;;;17.80;87.40;;;;;;5015998;28;20232;-61
2022/07/03 03:02:40;;;;;;;9.70;6.37;;;17.90;87.70;;;;;;5018864;28;20199;-61
2022/07/03 03:05:13;;;;;;;5.40;4.30;;;17.80;88.60;;;;;;5025300;28;20201;-61
2022/07/03 03:07:58;;;;;;;11.73;7.33;;;17.80;89.40;;;;;;5014501;28;20204;-60
2022/07/03 03:10:23;;;;;;;10.73;6.40;;;17.80;90.40;;;;;;5024351;28;20284;-62
2022/07/03 03:13:04;;;;;;;12.93;7.07;;;17.70;90.70;;;;;;5015235;28;20233;-61
2022/07/03 03:15:31;;;;;;;8.67;5.90;;;17.70;90.70;;;;;;4997178;28;20284;-62
2022/07/03 03:18:05;;;;;;;7.07;5.57;;;17.70;90.80;;;;;;5023424;28;20677;-62
2022/07/03 03:20:33;;;;;;;8.77;6.33;;;17.70;91.10;;;;;;5016590;28;20180;-62
2022/07/03 03:23:35;;;;;;;8.63;5.80;;;17.70;91.40;;;;;;5023310;28;20219;-61
2022/07/03 03:26:00;;;;;;;8.93;6.27;;;17.70;91.80;;;;;;4988900;28;20276;-61
2022/07/03 03:28:26;;;;;;;8.20;5.80;;;17.70;92.40;;;;;;5019156;28;20752;-61
2022/07/03 03:30:52;;;;;;;11.30;7.00;;;17.70;92.40;;;;;;5025064;28;20249;-61
2022/07/03 03:33:19;;;;;;;8.10;5.97;;;17.70;92.70;;;;;;5004429;28;20207;-61
2022/07/03 03:35:44;;;;;;;9.70;6.47;;;17.70;92.80;;;;;;5025432;28;20246;-61
2022/07/03 03:38:11;;;;;;;8.00;5.70;;;17.70;93.00;;;;;;5015247;28;20241;-61
2022/07/03 03:40:37;;;;;;;9.50;7.13;;;17.70;93.30;;;;;;5025296;28;20758;-62
2022/07/03 03:43:03;;;;;;;11.17;6.47;;;17.70;93.60;;;;;;5012603;28;20274;-63
2022/07/03 03:45:29;;;;;;;10.43;5.80;;;17.70;93.90;;;;;;5024673;28;20203;-62
2022/07/03 03:47:55;;;;;;;12.37;6.80;;;17.70;93.90;;;;;;5023264;28;20289;-62
2022/07/03 03:50:20;;;;;;;6.93;4.33;;;17.70;94.30;;;;;;5025395;28;20277;-62
2022/07/03 03:52:46;;;;;;;8.33;6.40;;;17.70;94.30;;;;;;5014233;28;20222;-62
2022/07/03 03:55:12;;;;;;;10.60;6.03;;;17.80;94.70;;;;;;5024575;28;20234;-61
2022/07/03 03:57:37;;;;;;;8.00;5.97;;;17.70;94.50;;;;;;5024105;28;20199;-61
2022/07/03 04:00:05;;;;;;;8.10;5.60;;;17.80;94.80;;;;;;5007453;28;20190;-61
2022/07/03 04:02:31;;;;;;;8.17;5.87;;;17.80;94.90;;;;;;5016679;28;20693;-61
2022/07/03 04:04:56;;;;;;;6.67;5.23;;;17.80;95.30;;;;;;5016096;28;20190;-61
2022/07/03 04:07:21;;;;;;;10.57;6.37;;;17.80;95.30;;;;;;5023077;28;20302;-61
2022/07/03 04:09:47;;;;;;;8.63;5.90;;;17.80;95.30;;;;;;5012956;28;20243;-60
2022/07/03 04:12:13;;;;;;;14.93;7.27;;;17.90;95.30;;;;;;5025930;28;20658;-61
2022/07/03 04:14:38;;;;;;;9.83;6.17;;;17.90;95.40;;;;;;5020537;28;20608;-61
2022/07/03 04:17:04;;;;;;;11.03;7.23;;;17.90;95.10;;;;;;5023964;28;20232;-61
2022/07/03 04:19:30;;;;;;;9.13;5.93;;;18.10;94.60;;;;;;5020345;28;20186;-61
2022/07/03 04:21:55;;;;;;;25.80;14.10;;;18.10;94.70;;;;;;5026715;28;20215;-61
2022/07/03 04:24:21;;;;;;;8.77;6.63;;;18.10;94.60;;;;;;5016869;28;20941;-62
2022/07/03 04:26:46;;;;;;;21.17;11.97;;;18.10;94.60;;;;;;5025794;28;20193;-61
2022/07/03 04:29:12;;;;;;;9.10;6.50;;;18.20;94.50;;;;;;5020670;28;20855;-62
2022/07/03 04:31:37;;;;;;;13.07;6.87;;;18.20;94.70;;;;;;5018306;28;20546;-62
2022/07/03 04:34:03;;;;;;;8.17;5.93;;;18.20;94.40;;;;;;5012852;28;20236;-62
2022/07/03 04:36:28;;;;;;;10.10;7.37;;;18.20;94.60;;;;;;5023439;28;20203;-61
2022/07/03 04:38:54;;;;;;;9.13;6.10;;;18.20;94.80;;;;;;5017729;28;20242;-61
2022/07/03 04:41:20;;;;;;;9.40;6.93;;;18.30;95.10;;;;;;5027833;28;20251;-62
2022/07/03 04:43:45;;;;;;;9.40;6.40;;;18.30;94.80;;;;;;5010251;28;20200;-61
2022/07/03 04:46:11;;;;;;;10.03;6.40;;;18.40;95.00;;;;;;5021010;28;20194;-61
2022/07/03 04:48:36;;;;;;;8.13;5.60;;;18.40;94.70;;;;;;5014816;28;20215;-61
2022/07/03 04:51:02;;;;;;;10.23;7.07;;;18.40;95.10;;;;;;5028207;28;20230;-61
2022/07/03 04:53:27;;;;;;;8.97;6.83;;;18.40;94.90;;;;;;5017014;28;20199;-61
2022/07/03 04:55:53;;;;;;;10.77;6.23;;;18.50;95.20;;;;;;5027723;28;20233;-61
2022/07/03 04:58:18;;;;;;;9.27;6.20;;;18.50;95.00;;;;;;5022510;28;20566;-61
2022/07/03 05:00:44;;;;;;;10.80;6.63;;;18.60;94.60;;;;;;5027264;28;20359;-61
2022/07/03 05:03:11;;;;;;;9.17;6.57;;;18.70;94.40;;;;;;5017061;28;20749;-60
2022/07/03 05:05:36;;;;;;;8.83;5.87;;;18.70;94.60;;;;;;5027755;28;20225;-60
2022/07/03 05:08:02;;;;;;;7.60;5.43;;;18.80;94.60;;;;;;5022972;28;20579;-60
2022/07/03 05:10:28;;;;;;;7.97;5.83;;;18.90;94.60;;;;;;5027219;28;20680;-60
2022/07/03 05:12:53;;;;;;;9.57;6.20;;;18.90;94.40;;;;;;5016836;28;20207;-60
2022/07/03 05:15:19;;;;;;;7.27;5.90;;;19.00;94.30;;;;;;5027824;28;20211;-61
2022/07/03 05:17:44;;;;;;;8.73;5.93;;;19.10;94.00;;;;;;5025723;28;20199;-61
2022/07/03 05:20:29;;;;;;;9.60;6.50;;;19.10;93.90;;;;;;5024986;28;20740;-60
2022/07/03 05:22:56;;;;;;;10.77;6.87;;;19.20;93.80;;;;;;5007714;28;20299;-61
2022/07/03 05:25:22;;;;;;;12.33;6.30;;;19.40;93.30;;;;;;5027076;28;20202;-60
2022/07/03 05:27:50;;;;;;;10.60;6.73;;;19.40;93.20;;;;;;5025410;28;20665;-60
2022/07/03 05:30:16;;;;;;;9.47;6.43;;;19.50;92.60;;;;;;5027116;28;20228;-60
2022/07/03 05:32:42;;;;;;;13.03;6.60;;;19.60;92.60;;;;;;5022446;28;20215;-62
2022/07/03 05:35:08;;;;;;;7.37;5.00;;;19.60;92.50;;;;;;5026849;28;20436;-61
2022/07/03 05:37:34;;;;;;;10.83;7.03;;;19.70;92.60;;;;;;5023566;28;20755;-63
2022/07/03 05:39:59;;;;;;;10.53;5.90;;;19.80;92.70;;;;;;5021347;28;20205;-66
2022/07/03 05:42:25;;;;;;;10.10;6.07;;;19.90;92.20;;;;;;5019774;28;20657;-60
2022/07/03 05:44:50;;;;;;;6.57;4.93;;;20.00;91.90;;;;;;5019862;28;20201;-61
2022/07/03 05:47:16;;;;;;;11.33;5.03;;;20.00;91.40;;;;;;5025452;28;20565;-62
2022/07/03 05:49:41;;;;;;;8.37;5.17;;;20.10;91.10;;;;;;5014755;28;20226;-61
2022/07/03 05:52:07;;;;;;;7.00;5.00;;;20.20;90.90;;;;;;5025370;28;20217;-61
2022/07/03 05:54:32;;;;;;;7.37;4.63;;;20.30;90.60;;;;;;5018605;28;20246;-61
2022/07/03 05:56:58;;;;;;;22.77;10.97;;;20.50;90.40;;;;;;5023063;28;20331;-61
2022/07/03 05:59:24;;;;;;;8.43;5.83;;;20.70;90.00;;;;;;5016189;28;20183;-62
2022/07/03 06:01:49;;;;;;;21.20;12.27;;;20.80;89.60;;;;;;5025034;28;20191;-61
2022/07/03 06:04:16;;;;;;;7.03;4.50;;;20.90;89.10;;;;;;5010847;28;20184;-61
2022/07/03 06:06:41;;;;;;;7.80;5.33;;;21.00;88.70;;;;;;5014911;28;20195;-61
2022/07/03 06:09:07;;;;;;;6.77;4.83;;;21.10;87.50;;;;;;5018855;28;20868;-63
2022/07/03 06:11:32;;;;;;;7.80;5.50;;;21.20;87.00;;;;;;5022970;28;20207;-60
2022/07/03 06:13:58;;;;;;;6.87;4.73;;;21.20;85.90;;;;;;5011508;28;20234;-61
2022/07/03 06:16:23;;;;;;;8.50;5.90;;;21.20;85.90;;;;;;5021325;28;20188;-59
2022/07/03 06:18:49;;;;;;;7.80;5.43;;;21.20;85.60;;;;;;5014451;28;20203;-61
2022/07/03 06:21:15;;;;;;;9.43;5.80;;;21.30;85.80;;;;;;5026645;28;20537;-62
2022/07/03 06:23:40;;;;;;;7.17;5.63;;;21.40;85.40;;;;;;5015424;28;20791;-62
2022/07/03 06:26:06;;;;;;;8.27;4.80;;;21.50;84.90;;;;;;5024349;28;20196;-61
2022/07/03 06:28:32;;;;;;;6.90;4.93;;;21.60;84.40;;;;;;5014390;28;20208;-61
2022/07/03 06:30:57;;;;;;;8.50;5.07;;;21.60;83.60;;;;;;5020698;28;20196;-62
2022/07/03 06:33:23;;;;;;;6.53;5.37;;;21.70;83.60;;;;;;5014921;28;20212;-62
2022/07/03 06:35:49;;;;;;;7.43;4.95;;;21.80;82.90;;;;;;5026090;28;20215;-63
2022/07/03 06:38:14;;;;;;;6.60;4.85;;;21.90;82.30;;;;;;5021280;28;20206;-62
2022/07/03 06:40:39;;;;;;;6.68;4.82;;;21.90;81.90;;;;;;5025424;28;20218;-62
2022/07/03 06:43:05;;;;;;;6.38;4.50;;;22.00;81.60;;;;;;5008449;28;20692;-62
2022/07/03 06:45:30;;;;;;;8.65;5.60;;;22.10;81.10;;;;;;5007542;28;20204;-63
2022/07/03 06:47:56;;;;;;;7.73;4.37;;;22.30;80.50;;;;;;5006526;28;20203;-63
2022/07/03 06:50:22;;;;;;;6.00;4.30;;;22.30;80.70;;;;;;5007477;28;20196;-82
2022/07/03 06:52:47;;;;;;;7.03;5.22;;;22.50;78.70;;;;;;5004839;28;20211;-62
2022/07/03 06:55:13;;;;;;;7.35;5.10;;;22.50;79.20;;;;;;5006344;28;20709;-62
2022/07/03 06:57:38;;;;;;;7.97;5.00;;;22.60;78.50;;;;;;5003592;28;20211;-63
2022/07/03 07:00:05;;;;;;;7.53;4.68;;;22.60;78.50;;;;;;5019215;28;20200;-63
2022/07/03 07:02:30;;;;;;;5.65;4.35;;;22.70;78.50;;;;;;5016884;28;20208;-63
2022/07/03 07:04:56;;;;;;;6.55;4.53;;;22.70;77.90;;;;;;5016482;28;20184;-63
2022/07/03 07:07:21;;;;;;;7.45;4.97;;;22.80;77.20;;;;;;5017973;28;20278;-64
2022/07/03 07:09:48;;;;;;;7.55;4.75;;;22.90;77.00;;;;;;5021813;28;20183;-63
2022/07/03 07:12:14;;;;;;;7.18;5.22;;;22.90;76.70;;;;;;5019167;28;20210;-62
2022/07/03 07:14:39;;;;;;;10.57;5.80;;;23.00;76.10;;;;;;5020737;28;20212;-64
2022/07/03 07:17:05;;;;;;;6.28;4.40;;;23.00;76.40;;;;;;5018397;28;20208;-62
2022/07/03 07:19:31;;;;;;;8.00;5.07;;;23.10;75.10;;;;;;5025356;28;20730;-63
2022/07/03 07:21:56;;;;;;;8.98;5.10;;;23.20;75.50;;;;;;5011126;28;20286;-63
2022/07/03 07:24:22;;;;;;;6.93;5.05;;;23.30;75.00;;;;;;5023470;28;20230;-63
2022/07/03 07:26:47;;;;;;;5.43;3.60;;;23.30;74.20;;;;;;5012621;28;20579;-63
2022/07/03 07:29:13;;;;;;;7.35;5.10;;;23.30;74.00;;;;;;5024969;28;20188;-62
2022/07/03 07:31:38;;;;;;;9.52;5.45;;;23.40;74.00;;;;;;5023211;28;20218;-62
2022/07/03 07:34:04;;;;;;;7.57;4.30;;;23.50;74.30;;;;;;5020178;28;20196;-64
2022/07/03 07:36:29;;;;;;;7.32;4.50;;;23.60;74.20;;;;;;5003779;28;20196;-62
2022/07/03 07:38:55;;;;;;;8.35;4.68;;;23.60;74.50;;;;;;5007720;28;20192;-63
2022/07/03 07:41:21;;;;;;;6.90;4.90;;;23.80;74.50;;;;;;5005348;28;20195;-61
2022/07/03 07:43:46;;;;;;;11.13;7.38;;;24.00;73.00;;;;;;5006901;28;20649;-62
2022/07/03 07:46:12;;;;;;;7.88;5.07;;;24.10;72.70;;;;;;5008871;28;20207;-62
2022/07/03 07:48:37;;;;;;;7.15;4.60;;;24.00;72.00;;;;;;5009103;28;20210;-62
2022/07/03 07:51:03;;;;;;;7.53;4.90;;;24.00;72.30;;;;;;5009355;28;20203;-62
2022/07/03 07:53:28;;;;;;;5.15;4.35;;;24.00;72.40;;;;;;5007373;28;20542;-63
2022/07/03 07:55:54;;;;;;;5.68;4.63;;;24.10;70.90;;;;;;5010528;28;20273;-62
2022/07/03 07:58:19;;;;;;;6.50;4.45;;;24.10;70.60;;;;;;5015516;28;20207;-61
2022/07/03 08:06:16;;;;;;;7.97;5.43;;;24.10;70.00;;;;;;5013001;28;20252;-65
2022/07/03 08:08:41;;;;;;;7.32;5.45;;;24.10;70.30;;;;;;5011369;28;20202;-65
2022/07/03 08:11:07;;;;;;;9.07;7.85;;;24.20;71.00;;;;;;5020334;28;20205;-62
2022/07/03 08:13:32;;;;;;;6.30;4.60;;;24.30;71.20;;;;;;5008143;28;20301;-62
2022/07/03 08:15:59;;;;;;;5.20;4.22;;;24.30;69.10;;;;;;5016079;28;20228;-62
2022/07/03 08:18:25;;;;;;;5.35;4.57;;;24.40;68.40;;;;;;5004102;28;20295;-63
2022/07/03 08:20:50;;;;;;;6.88;4.78;;;24.40;68.50;;;;;;5018421;28;20635;-61
2022/07/03 08:23:16;;;;;;;9.52;5.28;;;24.60;69.00;;;;;;5012361;28;20203;-61
2022/07/03 08:25:42;;;;;;;4.93;4.10;;;24.60;68.40;;;;;;5019458;28;20190;-61
2022/07/03 08:28:07;;;;;;;5.70;4.22;;;24.70;69.00;;;;;;5013883;28;20302;-63
2022/07/03 08:30:33;;;;;;;10.75;5.53;;;24.80;68.30;;;;;;5017669;28;20198;-62
2022/07/03 08:32:59;;;;;;;7.95;4.75;;;24.90;68.20;;;;;;5012713;28;20552;-64
2022/07/03 08:35:25;;;;;;;6.43;4.00;;;25.10;67.60;;;;;;5011171;28;20594;-63
2022/07/03 08:37:51;;;;;;;4.45;3.88;;;25.10;67.00;;;;;;5008363;28;20632;-62
2022/07/03 08:40:18;;;;;;;7.90;4.28;;;25.00;65.60;;;;;;5011854;28;20192;-62
2022/07/03 08:42:48;;;;;;;6.13;4.72;;;25.20;65.40;;;;;;5018866;28;20199;-62
2022/07/03 08:45:16;;;;;;;5.85;4.55;;;25.10;65.70;;;;;;5011203;28;20203;-62
2022/07/03 08:47:46;;;;;;;7.63;4.22;;;25.10;66.00;;;;;;5012714;28;20240;-62
2022/07/03 08:50:15;;;;;;;6.93;4.75;;;25.10;66.30;;;;;;5009700;28;20227;-62
2022/07/03 08:52:42;;;;;;;6.47;4.65;;;25.10;64.70;;;;;;5019944;28;20211;-61
2022/07/03 08:55:09;;;;;;;8.02;5.53;;;25.20;64.60;;;;;;5015160;28;20233;-62
2022/07/03 08:57:37;;;;;;;9.43;5.53;;;25.10;64.20;;;;;;5007211;28;20201;-63
2022/07/03 09:00:06;;;;;;;6.45;4.95;;;25.20;64.20;;;;;;5010069;28;20214;-62
2022/07/03 09:02:34;;;;;;;10.10;6.00;;;25.20;65.90;;;;;;5022381;28;20199;-62
2022/07/03 09:05:02;;;;;;;8.23;4.68;;;25.30;64.70;;;;;;5010944;28;20213;-62
2022/07/03 09:07:31;;;;;;;5.60;4.47;;;25.40;64.40;;;;;;5009896;28;20201;-61
2022/07/03 09:09:56;;;;;;;5.38;4.38;;;25.50;64.30;;;;;;5012021;28;20283;-62
2022/07/03 09:12:22;;;;;;;6.47;4.90;;;25.50;62.70;;;;;;5013090;28;20737;-62
2022/07/03 09:14:48;;;;;;;4.80;3.65;;;25.40;62.90;;;;;;5014119;28;20209;-63
2022/07/03 09:17:14;;;;;;;6.22;4.38;;;25.50;63.60;;;;;;5017447;28;20201;-62
2022/07/03 09:19:46;;;;;;;7.82;5.18;;;25.70;62.80;;;;;;5023558;28;20757;-63
2022/07/03 09:22:23;;;;;;;7.93;4.68;;;25.70;63.10;;;;;;5008926;28;20198;-66
2022/07/03 09:24:50;;;;;;;8.45;4.43;;;25.60;61.70;;;;;;5006557;28;20607;-62
2022/07/03 09:27:17;;;;;;;7.13;4.45;;;25.70;61.60;;;;;;5012351;28;20212;-62
2022/07/03 09:30:00;;;;;;;11.82;5.95;;;25.70;61.80;;;;;;5009109;28;20214;-62
2022/07/03 09:32:36;;;;;;;11.60;6.88;;;25.70;62.70;;;;;;5008825;28;20197;-62
2022/07/03 09:35:19;;;;;;;7.32;4.55;;;25.90;62.20;;;;;;5006861;28;20325;-62
2022/07/03 09:38:04;;;;;;;11.48;6.30;;;25.90;61.20;;;;;;5009500;28;20187;-63
2022/07/03 09:40:54;;;;;;;16.25;7.63;;;26.00;61.10;;;;;;5011372;28;20176;-61
2022/07/03 09:43:29;;;;;;;24.65;12.05;;;26.10;60.80;;;;;;5009032;28;20209;-62
2022/07/03 09:45:57;;;;;;;12.50;6.00;;;26.20;61.60;;;;;;5011046;28;21031;-62
2022/07/03 09:48:26;;;;;;;9.68;5.53;;;26.30;60.50;;;;;;5013363;28;20223;-63
2022/07/03 09:51:26;;;;;;;9.95;5.72;;;26.40;60.50;;;;;;5009322;28;20194;-62
2022/07/03 09:53:55;;;;;;;9.05;5.35;;;26.40;60.00;;;;;;5023344;28;20203;-63
2022/07/03 09:56:23;;;;;;;8.48;4.75;;;26.30;59.90;;;;;;5017332;28;20240;-62
2022/07/03 09:59:04;;;;;;;10.88;5.97;;;26.30;59.20;;;;;;5012215;28;20208;-62
2022/07/03 10:01:30;;;;;;;10.40;5.63;;;26.50;59.30;;;;;;5017295;28;20759;-61
2022/07/03 10:04:10;;;;;;;10.52;5.30;;;26.50;59.00;;;;;;5009914;28;20371;-62
2022/07/03 10:06:53;;;;;;;9.57;5.10;;;26.70;59.10;;;;;;5008684;28;20949;-62
2022/07/03 10:09:21;;;;;;;11.38;5.80;;;26.70;58.40;;;;;;5012216;28;20564;-61
2022/07/03 10:11:47;;;;;;;8.93;5.57;;;26.80;58.50;;;;;;5016536;28;20196;-64
2022/07/03 10:14:15;;;;;;;10.30;5.55;;;26.80;58.70;;;;;;5009814;28;20195;-61
2022/07/03 10:16:41;;;;;;;11.82;6.43;;;26.90;58.10;;;;;;5009695;28;20249;-64
2022/07/03 10:19:21;;;;;;;9.30;5.50;;;26.70;58.10;;;;;;5014676;28;20203;-62
2022/07/03 10:21:56;;;;;;;10.35;5.95;;;26.70;58.60;;;;;;5011276;28;20199;-62
2022/07/03 10:24:23;;;;;;;11.68;6.18;;;27.00;58.30;;;;;;5018516;28;20690;-62
2022/07/03 10:26:53;;;;;;;8.50;5.05;;;27.00;58.40;;;;;;5015204;28;20220;-62
2022/07/03 10:29:22;;;;;;;8.00;4.82;;;27.10;58.10;;;;;;5013134;28;20679;-62
2022/07/03 10:31:48;;;;;;;11.18;6.50;;;27.20;58.20;;;;;;5023362;28;20949;-61
2022/07/03 10:34:19;;;;;;;12.43;6.38;;;27.40;58.20;;;;;;5024220;28;20196;-61
2022/07/03 10:36:48;;;;;;;14.52;6.65;;;27.40;57.40;;;;;;5019359;28;20203;-62
2022/07/03 10:39:23;;;;;;;8.05;4.82;;;27.40;57.40;;;;;;5013355;28;20188;-62
2022/07/03 10:45:02;;;;;;;8.50;5.57;;;27.30;57.30;;;;;;5015537;28;20282;-61
2022/07/03 10:47:38;;;;;;;6.47;4.43;;;27.40;57.80;;;;;;5012712;28;20207;-62
2022/07/03 10:50:11;;;;;;;9.07;5.05;;;27.60;56.80;;;;;;5015717;28;20203;-62
2022/07/03 10:52:38;;;;;;;11.40;6.22;;;27.70;57.40;;;;;;5015039;28;20677;-62
2022/07/03 10:55:06;;;;;;;7.20;4.90;;;27.90;55.80;;;;;;5017735;28;20231;-63
2022/07/03 10:57:32;;;;;;;11.57;6.20;;;27.90;56.30;;;;;;5013514;28;20211;-63
2022/07/03 11:00:00;;;;;;;9.63;5.60;;;28.10;55.60;;;;;;5016606;28;20184;-63
2022/07/03 11:02:43;;;;;;;8.95;5.47;;;28.10;54.60;;;;;;5012341;28;20705;-63
2022/07/03 11:05:18;;;;;;;5.68;4.13;;;28.30;54.00;;;;;;5016084;28;20261;-63
2022/07/03 11:07:49;;;;;;;10.43;5.72;;;29.00;53.90;;;;;;5015215;28;20614;-62
2022/07/03 11:10:28;;;;;;;9.60;5.47;;;29.80;51.20;;;;;;5016679;28;20235;-63
2022/07/03 11:13:07;;;;;;;14.38;8.48;;;30.10;49.30;;;;;;5011986;28;20292;-62
2022/07/03 11:15:47;;;;;;;7.72;3.33;;;30.60;48.80;;;;;;5014988;28;20302;-64
2022/07/03 11:18:17;;;;;;;10.57;5.13;;;30.70;49.40;;;;;;5013950;28;20203;-62
2022/07/03 11:20:43;;;;;;;9.88;5.25;;;31.10;49.60;;;;;;5015955;28;20191;-63
2022/07/03 11:23:26;;;;;;;7.72;4.38;;;32.30;48.10;;;;;;5009779;28;20765;-61
2022/07/03 11:26:07;;;;;;;16.83;7.53;;;33.30;46.70;;;;;;5010442;28;20615;-62
2022/07/03 11:28:33;;;;;;;10.85;5.57;;;33.70;43.70;;;;;;5000152;28;20199;-63
2022/07/03 11:31:07;;;;;;;48.65;20.23;;;34.50;43.00;;;;;;5014156;28;20195;-62
2022/07/03 11:33:43;;;;;;;19.75;9.65;;;34.80;42.70;;;;;;5013814;28;20187;-62
2022/07/03 11:36:15;;;;;;;44.25;17.33;;;34.80;42.00;;;;;;5005681;28;20891;-63
2022/07/03 11:38:41;;;;;;;21.55;8.93;;;34.80;41.10;;;;;;5006604;28;20204;-61
2022/07/03 11:41:10;;;;;;;10.25;5.38;;;34.70;40.90;;;;;;5005369;28;20662;-61
2022/07/03 11:43:36;;;;;;;11.40;5.38;;;33.40;41.20;;;;;;5009711;28;20188;-61
2022/07/03 11:46:03;;;;;;;17.52;8.68;;;32.10;43.20;;;;;;5004405;28;20208;-62
2022/07/03 11:48:29;;;;;;;15.25;7.70;;;33.10;45.10;;;;;;5006276;28;20973;-62
2022/07/03 11:51:03;;;;;;;16.90;8.48;;;34.30;41.80;;;;;;5007073;28;20204;-63
2022/07/03 11:53:33;;;;;;;33.78;31.00;;;35.50;40.80;;;;;;5006618;28;20192;-64
2022/07/03 11:56:05;;;;;;;83.60;78.80;;;36.50;39.40;;;;;;5005038;28;20278;-62
2022/07/03 11:58:50;;;;;;;48.80;45.78;;;37.50;37.60;;;;;;5016604;28;20266;-63
2022/07/03 12:01:25;;;;;;;395.02;372.70;;;38.10;37.40;;;;;;5008058;28;20678;-63
2022/07/03 12:03:51;;;;;;;356.65;336.42;;;39.00;34.90;;;;;;5009567;28;20194;-63
2022/07/03 12:06:17;;;;;;;242.95;229.15;;;39.70;35.00;;;;;;5006093;28;20256;-62
2022/07/03 12:08:46;;;;;;;262.45;248.93;;;40.50;33.30;;;;;;5011124;28;20192;-62
2022/07/03 12:11:13;;;;;;;169.13;160.02;;;39.50;32.20;;;;;;5006901;28;20291;-62
2022/07/03 12:13:38;;;;;;;183.25;174.07;;;38.60;32.30;;;;;;5007069;28;20192;-61
2022/07/03 12:16:07;;;;;;;79.38;74.38;;;37.90;33.10;;;;;;5006979;28;20289;-62
2022/07/03 12:18:44;;;;;;;20.63;13.82;;;38.50;34.30;;;;;;5011723;28;20196;-63
2022/07/03 12:21:09;;;;;;;19.38;12.68;;;37.60;34.70;;;;;;5012768;28;20203;-62
2022/07/03 12:23:54;;;;;;;31.15;28.33;;;37.00;34.50;;;;;;5012869;28;20665;-62
2022/07/03 12:26:36;;;;;;;140.77;133.45;;;36.00;34.80;;;;;;5013422;28;20211;-61
2022/07/03 12:29:07;;;;;;;140.38;132.90;;;36.60;35.50;;;;;;5012575;28;20237;-64
2022/07/03 12:31:33;;;;;;;63.53;59.40;;;37.30;34.00;;;;;;5021975;28;20683;-63
2022/07/03 12:34:00;;;;;;;80.57;74.82;;;37.30;33.90;;;;;;5019859;28;20236;-61
2022/07/03 12:36:26;;;;;;;97.88;92.18;;;39.00;32.40;;;;;;5027484;28;20241;-63
2022/07/03 12:38:53;;;;;;;519.28;484.42;;;39.40;31.40;;;;;;5024828;28;20210;-64
2022/07/03 12:41:20;;;;;;;1363.35;999.90;;;39.60;31.80;;;;;;5018875;28;20197;-63
2022/07/03 12:43:48;;;;;;;1402.25;999.90;;;40.50;30.60;;;;;;5021368;28;20282;-63
2022/07/03 12:46:26;;;;;;;1409.10;999.90;;;38.90;30.20;;;;;;5013576;28;20231;-63
2022/07/03 12:48:54;;;;;;;1396.93;999.90;;;37.00;32.70;;;;;;5014579;28;20216;-61
2022/07/03 12:51:44;;;;;;;1392.22;999.90;;;37.80;31.50;;;;;;5023845;28;20207;-62
2022/07/03 12:54:14;;;;;;;1399.03;999.90;;;38.80;31.90;;;;;;5010286;28;20381;-60
2022/07/03 12:56:42;;;;;;;1400.38;999.90;;;39.80;30.40;;;;;;5003945;28;20318;-63
2022/07/03 12:59:27;;;;;;;1393.75;999.90;;;40.20;30.00;;;;;;5020120;28;20204;-62
2022/07/03 13:02:04;;;;;;;1383.68;999.90;;;39.20;31.50;;;;;;5017990;28;20187;-60